sensor_id;sensor_type;location;lat;lon;timestamp;temperature;humidity
33269;DHT22;19640;50.944;5.260;2023-06-05T00:02:08;15.90;99.90
33269;DHT22;19640;50.944;5.260;2023-06-05T00:04:34;15.90;99.90
33269;DHT22;19640;50.944;5.260;2023-06-05T00:07:02;15.80;99.90
33269;DHT22;19640;50.944;5.260;2023-06-05T00:09:27;15.60;99.90
33269;DHT22;19640;50.944;5.260;2023-06-05T00:11:53;15.60;99.90
33269;DHT22;19640;50.944;5.260;2023-06-05T00:14:19;15.90;99.90
33269;DHT22;19640;50.944;5.260;2023-06-05T00:16:45;16.00;99.90
33269;DHT22;19640;50.944;5.260;2023-06-05T00:19:10;16.00;99.90
33269;DHT22;19640;50.944;5.260;2023-06-05T00:21:36;16.10;99.90
33269;DHT22;19640;50.944;5.260;2023-06-05T00:24:02;15.90;99.90
33269;DHT22;19640;50.944;5.260;2023-06-05T00:26:28;15.70;99.90
33269;DHT22;19640;50.944;5.260;2023-06-05T00:28:53;15.40;99.90
33269;DHT22;19640;50.944;5.260;2023-06-05T00:31:19;15.50;99.90
33269;DHT22;19640;50.944;5.260;2023-06-05T00:33:47;15.50;99.90
33269;DHT22;19640;50.944;5.260;2023-06-05T00:36:13;15.70;99.90
33269;DHT22;19640;50.944;5.260;2023-06-05T00:38:39;15.50;99.90
33269;DHT22;19640;50.944;5.260;2023-06-05T00:41:05;15.50;99.90
33269;DHT22;19640;50.944;5.260;2023-06-05T00:43:30;15.30;99.90
33269;DHT22;19640;50.944;5.260;2023-06-05T00:46:00;15.30;99.90
33269;DHT22;19640;50.944;5.260;2023-06-05T00:48:29;15.40;99.90
33269;DHT22;19640;50.944;5.260;2023-06-05T00:50:55;15.30;99.90
33269;DHT22;19640;50.944;5.260;2023-06-05T00:53:23;15.10;99.90
33269;DHT22;19640;50.944;5.260;2023-06-05T00:55:50;15.00;99.90
33269;DHT22;19640;50.944;5.260;2023-06-05T00:58:17;15.00;99.90
33269;DHT22;19640;50.944;5.260;2023-06-05T01:00:43;15.00;99.90
33269;DHT22;19640;50.944;5.260;2023-06-05T01:03:10;15.00;99.90
33269;DHT22;19640;50.944;5.260;2023-06-05T01:05:37;15.10;99.90
33269;DHT22;19640;50.944;5.260;2023-06-05T01:08:04;15.00;99.90
33269;DHT22;19640;50.944;5.260;2023-06-05T01:10:31;14.90;99.90
33269;DHT22;19640;50.944;5.260;2023-06-05T01:15:28;14.90;99.90
33269;DHT22;19640;50.944;5.260;2023-06-05T01:17:58;14.90;99.90
33269;DHT22;19640;50.944;5.260;2023-06-05T01:20:34;14.90;99.90
33269;DHT22;19640;50.944;5.260;2023-06-05T01:23:02;15.00;99.90
33269;DHT22;19640;50.944;5.260;2023-06-05T01:25:28;14.90;99.90
33269;DHT22;19640;50.944;5.260;2023-06-05T01:27:59;14.60;99.90
33269;DHT22;19640;50.944;5.260;2023-06-05T01:30:27;14.60;99.90
33269;DHT22;19640;50.944;5.260;2023-06-05T01:33:08;14.60;99.90
33269;DHT22;19640;50.944;5.260;2023-06-05T01:35:38;14.50;99.90
33269;DHT22;19640;50.944;5.260;2023-06-05T01:38:06;14.40;99.90
33269;DHT22;19640;50.944;5.260;2023-06-05T01:40:35;14.40;99.90
33269;DHT22;19640;50.944;5.260;2023-06-05T01:43:03;14.30;99.90
33269;DHT22;19640;50.944;5.260;2023-06-05T01:45:30;14.30;99.90
33269;DHT22;19640;50.944;5.260;2023-06-05T01:47:56;14.20;99.90
33269;DHT22;19640;50.944;5.260;2023-06-05T01:50:22;14.00;99.90
33269;DHT22;19640;50.944;5.260;2023-06-05T01:52:48;14.00;99.90
33269;DHT22;19640;50.944;5.260;2023-06-05T01:55:16;14.10;99.90
33269;DHT22;19640;50.944;5.260;2023-06-05T01:57:44;14.20;99.90
33269;DHT22;19640;50.944;5.260;2023-06-05T02:00:10;14.00;99.90
33269;DHT22;19640;50.944;5.260;2023-06-05T02:02:42;14.00;99.90
33269;DHT22;19640;50.944;5.260;2023-06-05T02:05:08;13.90;99.90
33269;DHT22;19640;50.944;5.260;2023-06-05T02:07:37;13.90;99.90
33269;DHT22;19640;50.944;5.260;2023-06-05T02:10:05;13.70;99.90
33269;DHT22;19640;50.944;5.260;2023-06-05T02:12:31;13.80;99.90
33269;DHT22;19640;50.944;5.260;2023-06-05T02:14:59;13.90;99.90
33269;DHT22;19640;50.944;5.260;2023-06-05T02:17:25;14.00;99.90
33269;DHT22;19640;50.944;5.260;2023-06-05T02:19:51;13.90;99.90
33269;DHT22;19640;50.944;5.260;2023-06-05T02:22:17;13.80;99.90
33269;DHT22;19640;50.944;5.260;2023-06-05T02:24:43;13.90;99.90
33269;DHT22;19640;50.944;5.260;2023-06-05T02:27:09;13.80;99.90
33269;DHT22;19640;50.944;5.260;2023-06-05T02:29:36;13.70;99.90
33269;DHT22;19640;50.944;5.260;2023-06-05T02:32:03;13.70;99.90
33269;DHT22;19640;50.944;5.260;2023-06-05T02:34:28;13.70;99.90
33269;DHT22;19640;50.944;5.260;2023-06-05T02:36:54;13.60;99.90
33269;DHT22;19640;50.944;5.260;2023-06-05T02:39:21;13.60;99.90
33269;DHT22;19640;50.944;5.260;2023-06-05T02:41:47;13.60;99.90
33269;DHT22;19640;50.944;5.260;2023-06-05T02:44:12;13.80;99.90
33269;DHT22;19640;50.944;5.260;2023-06-05T02:46:38;13.70;99.90
33269;DHT22;19640;50.944;5.260;2023-06-05T02:49:04;13.80;99.90
33269;DHT22;19640;50.944;5.260;2023-06-05T02:51:30;13.90;99.90
33269;DHT22;19640;50.944;5.260;2023-06-05T02:53:55;14.00;99.90
33269;DHT22;19640;50.944;5.260;2023-06-05T02:56:21;13.80;99.90
33269;DHT22;19640;50.944;5.260;2023-06-05T02:58:47;13.70;99.90
33269;DHT22;19640;50.944;5.260;2023-06-05T03:01:13;13.60;99.90
33269;DHT22;19640;50.944;5.260;2023-06-05T03:03:38;13.60;99.90
33269;DHT22;19640;50.944;5.260;2023-06-05T03:06:04;13.60;99.90
33269;DHT22;19640;50.944;5.260;2023-06-05T03:08:34;13.60;99.90
33269;DHT22;19640;50.944;5.260;2023-06-05T03:11:03;13.70;99.90
33269;DHT22;19640;50.944;5.260;2023-06-05T03:13:29;13.80;99.90
33269;DHT22;19640;50.944;5.260;2023-06-05T03:15:56;13.90;99.90
33269;DHT22;19640;50.944;5.260;2023-06-05T03:18:25;13.70;99.90
33269;DHT22;19640;50.944;5.260;2023-06-05T03:20:52;13.60;99.90
33269;DHT22;19640;50.944;5.260;2023-06-05T03:23:25;13.50;99.90
33269;DHT22;19640;50.944;5.260;2023-06-05T03:25:51;13.60;99.90
33269;DHT22;19640;50.944;5.260;2023-06-05T03:28:18;13.50;99.90
33269;DHT22;19640;50.944;5.260;2023-06-05T03:30:44;13.40;99.90
33269;DHT22;19640;50.944;5.260;2023-06-05T03:33:10;13.40;99.90
33269;DHT22;19640;50.944;5.260;2023-06-05T03:35:36;13.40;99.90
33269;DHT22;19640;50.944;5.260;2023-06-05T03:38:02;13.30;99.90
33269;DHT22;19640;50.944;5.260;2023-06-05T03:40:28;13.30;99.90
33269;DHT22;19640;50.944;5.260;2023-06-05T03:42:54;13.30;99.90
33269;DHT22;19640;50.944;5.260;2023-06-05T03:45:20;13.30;99.90
33269;DHT22;19640;50.944;5.260;2023-06-05T03:47:46;13.30;99.90
33269;DHT22;19640;50.944;5.260;2023-06-05T03:50:14;13.30;99.90
33269;DHT22;19640;50.944;5.260;2023-06-05T03:52:41;13.40;99.90
33269;DHT22;19640;50.944;5.260;2023-06-05T03:55:07;13.50;99.90
33269;DHT22;19640;50.944;5.260;2023-06-05T03:57:34;13.40;99.90
33269;DHT22;19640;50.944;5.260;2023-06-05T04:00:00;13.50;99.90
33269;DHT22;19640;50.944;5.260;2023-06-05T04:02:26;13.50;99.90
33269;DHT22;19640;50.944;5.260;2023-06-05T04:04:51;13.20;99.90
33269;DHT22;19640;50.944;5.260;2023-06-05T04:07:17;13.40;99.90
33269;DHT22;19640;50.944;5.260;2023-06-05T04:09:43;13.50;99.90
33269;DHT22;19640;50.944;5.260;2023-06-05T04:12:09;13.40;99.90
33269;DHT22;19640;50.944;5.260;2023-06-05T04:14:39;13.20;99.90
33269;DHT22;19640;50.944;5.260;2023-06-05T04:17:05;13.10;99.90
33269;DHT22;19640;50.944;5.260;2023-06-05T04:19:31;13.00;99.90
33269;DHT22;19640;50.944;5.260;2023-06-05T04:21:56;13.10;99.90
33269;DHT22;19640;50.944;5.260;2023-06-05T04:24:22;13.10;99.90
33269;DHT22;19640;50.944;5.260;2023-06-05T04:26:50;13.20;99.90
33269;DHT22;19640;50.944;5.260;2023-06-05T04:29:17;13.20;99.90
33269;DHT22;19640;50.944;5.260;2023-06-05T04:31:46;13.20;99.90
33269;DHT22;19640;50.944;5.260;2023-06-05T04:34:13;13.40;99.90
33269;DHT22;19640;50.944;5.260;2023-06-05T04:36:40;13.30;99.90
33269;DHT22;19640;50.944;5.260;2023-06-05T04:39:05;13.50;99.90
33269;DHT22;19640;50.944;5.260;2023-06-05T04:41:39;13.40;99.90
33269;DHT22;19640;50.944;5.260;2023-06-05T04:44:11;13.30;99.90
33269;DHT22;19640;50.944;5.260;2023-06-05T04:46:38;13.40;99.90
33269;DHT22;19640;50.944;5.260;2023-06-05T04:49:07;13.30;99.90
33269;DHT22;19640;50.944;5.260;2023-06-05T04:51:33;13.30;99.90
33269;DHT22;19640;50.944;5.260;2023-06-05T04:53:58;13.20;99.90
33269;DHT22;19640;50.944;5.260;2023-06-05T04:56:25;13.20;99.90
33269;DHT22;19640;50.944;5.260;2023-06-05T04:58:51;13.10;99.90
33269;DHT22;19640;50.944;5.260;2023-06-05T05:01:18;13.10;99.90
33269;DHT22;19640;50.944;5.260;2023-06-05T05:03:45;13.10;99.90
33269;DHT22;19640;50.944;5.260;2023-06-05T05:06:15;13.10;99.90
33269;DHT22;19640;50.944;5.260;2023-06-05T05:08:42;13.10;99.90
33269;DHT22;19640;50.944;5.260;2023-06-05T05:11:10;13.00;99.90
33269;DHT22;19640;50.944;5.260;2023-06-05T05:13:37;13.00;99.90
33269;DHT22;19640;50.944;5.260;2023-06-05T05:16:02;13.10;99.90
33269;DHT22;19640;50.944;5.260;2023-06-05T05:18:28;13.10;99.90
33269;DHT22;19640;50.944;5.260;2023-06-05T05:20:55;13.30;99.90
33269;DHT22;19640;50.944;5.260;2023-06-05T05:23:20;13.30;99.90
33269;DHT22;19640;50.944;5.260;2023-06-05T05:25:46;13.20;99.90
33269;DHT22;19640;50.944;5.260;2023-06-05T05:28:13;13.10;99.90
33269;DHT22;19640;50.944;5.260;2023-06-05T05:30:38;13.20;99.90
33269;DHT22;19640;50.944;5.260;2023-06-05T05:33:04;13.40;99.90
33269;DHT22;19640;50.944;5.260;2023-06-05T05:35:30;13.60;99.90
33269;DHT22;19640;50.944;5.260;2023-06-05T05:37:56;13.60;99.90
33269;DHT22;19640;50.944;5.260;2023-06-05T05:40:22;13.50;99.90
33269;DHT22;19640;50.944;5.260;2023-06-05T05:42:48;13.60;99.90
33269;DHT22;19640;50.944;5.260;2023-06-05T05:45:14;13.70;99.90
33269;DHT22;19640;50.944;5.260;2023-06-05T05:47:40;13.60;99.90
33269;DHT22;19640;50.944;5.260;2023-06-05T05:50:06;13.60;99.90
33269;DHT22;19640;50.944;5.260;2023-06-05T05:52:32;13.60;99.90
33269;DHT22;19640;50.944;5.260;2023-06-05T05:54:58;13.70;99.90
33269;DHT22;19640;50.944;5.260;2023-06-05T05:57:25;13.80;99.90
33269;DHT22;19640;50.944;5.260;2023-06-05T05:59:51;14.00;99.90
33269;DHT22;19640;50.944;5.260;2023-06-05T06:02:16;14.10;99.90
33269;DHT22;19640;50.944;5.260;2023-06-05T06:04:42;14.30;99.90
33269;DHT22;19640;50.944;5.260;2023-06-05T06:07:11;14.60;99.90
33269;DHT22;19640;50.944;5.260;2023-06-05T06:09:37;14.70;99.90
33269;DHT22;19640;50.944;5.260;2023-06-05T06:12:04;14.70;99.90
33269;DHT22;19640;50.944;5.260;2023-06-05T06:14:32;14.70;99.90
33269;DHT22;19640;50.944;5.260;2023-06-05T06:16:57;14.70;99.90
33269;DHT22;19640;50.944;5.260;2023-06-05T06:19:24;14.70;99.90
33269;DHT22;19640;50.944;5.260;2023-06-05T06:21:51;15.10;99.90
33269;DHT22;19640;50.944;5.260;2023-06-05T06:24:17;15.80;99.90
33269;DHT22;19640;50.944;5.260;2023-06-05T06:26:46;16.70;99.90
33269;DHT22;19640;50.944;5.260;2023-06-05T06:29:14;17.90;99.90
33269;DHT22;19640;50.944;5.260;2023-06-05T06:31:41;19.10;99.90
33269;DHT22;19640;50.944;5.260;2023-06-05T06:34:08;19.10;99.90
33269;DHT22;19640;50.944;5.260;2023-06-05T06:36:37;19.30;99.90
33269;DHT22;19640;50.944;5.260;2023-06-05T06:39:12;19.50;99.90
33269;DHT22;19640;50.944;5.260;2023-06-05T06:41:38;19.70;99.90
33269;DHT22;19640;50.944;5.260;2023-06-05T06:44:05;19.40;99.90
33269;DHT22;19640;50.944;5.260;2023-06-05T06:46:31;20.40;99.90
33269;DHT22;19640;50.944;5.260;2023-06-05T06:48:57;20.30;99.90
33269;DHT22;19640;50.944;5.260;2023-06-05T06:51:22;21.30;98.30
33269;DHT22;19640;50.944;5.260;2023-06-05T06:53:49;20.80;97.70
33269;DHT22;19640;50.944;5.260;2023-06-05T06:56:15;21.10;98.50
33269;DHT22;19640;50.944;5.260;2023-06-05T06:58:42;22.20;96.60
33269;DHT22;19640;50.944;5.260;2023-06-05T07:01:08;22.80;95.50
33269;DHT22;19640;50.944;5.260;2023-06-05T07:03:34;22.60;94.80
33269;DHT22;19640;50.944;5.260;2023-06-05T07:06:01;21.00;95.70
33269;DHT22;19640;50.944;5.260;2023-06-05T07:08:27;20.50;96.60
33269;DHT22;19640;50.944;5.260;2023-06-05T07:10:53;20.20;97.20
33269;DHT22;19640;50.944;5.260;2023-06-05T07:13:22;20.70;97.50
33269;DHT22;19640;50.944;5.260;2023-06-05T07:15:48;19.80;97.40
33269;DHT22;19640;50.944;5.260;2023-06-05T07:18:16;20.10;99.00
33269;DHT22;19640;50.944;5.260;2023-06-05T07:20:42;20.90;97.50
33269;DHT22;19640;50.944;5.260;2023-06-05T07:23:08;21.40;95.70
33269;DHT22;19640;50.944;5.260;2023-06-05T07:25:34;21.40;96.30
33269;DHT22;19640;50.944;5.260;2023-06-05T07:27:59;21.10;96.20
33269;DHT22;19640;50.944;5.260;2023-06-05T07:30:26;21.20;96.90
33269;DHT22;19640;50.944;5.260;2023-06-05T07:32:53;21.70;96.90
33269;DHT22;19640;50.944;5.260;2023-06-05T07:35:19;22.90;95.80
33269;DHT22;19640;50.944;5.260;2023-06-05T07:37:45;23.20;93.60
33269;DHT22;19640;50.944;5.260;2023-06-05T07:40:10;22.70;93.70
33269;DHT22;19640;50.944;5.260;2023-06-05T07:42:36;21.00;95.40
33269;DHT22;19640;50.944;5.260;2023-06-05T07:45:02;21.10;96.20
33269;DHT22;19640;50.944;5.260;2023-06-05T07:47:28;21.20;97.70
33269;DHT22;19640;50.944;5.260;2023-06-05T07:50:00;21.40;97.00
33269;DHT22;19640;50.944;5.260;2023-06-05T07:52:30;22.80;95.70
33269;DHT22;19640;50.944;5.260;2023-06-05T07:54:56;24.40;92.70
33269;DHT22;19640;50.944;5.260;2023-06-05T07:57:22;24.20;91.60
33269;DHT22;19640;50.944;5.260;2023-06-05T07:59:50;23.40;92.00
33269;DHT22;19640;50.944;5.260;2023-06-05T08:02:17;24.00;92.40
33269;DHT22;19640;50.944;5.260;2023-06-05T08:04:43;23.70;92.00
33269;DHT22;19640;50.944;5.260;2023-06-05T08:07:10;23.60;91.60
33269;DHT22;19640;50.944;5.260;2023-06-05T08:09:36;22.90;94.00
33269;DHT22;19640;50.944;5.260;2023-06-05T08:12:05;23.20;94.10
33269;DHT22;19640;50.944;5.260;2023-06-05T08:14:32;23.40;92.50
33269;DHT22;19640;50.944;5.260;2023-06-05T08:16:58;21.70;93.80
33269;DHT22;19640;50.944;5.260;2023-06-05T08:19:24;21.80;94.70
33269;DHT22;19640;50.944;5.260;2023-06-05T08:21:52;21.00;95.80
33269;DHT22;19640;50.944;5.260;2023-06-05T08:24:19;20.30;95.90
33269;DHT22;19640;50.944;5.260;2023-06-05T08:26:45;20.10;97.00
33269;DHT22;19640;50.944;5.260;2023-06-05T08:29:11;20.10;98.20
33269;DHT22;19640;50.944;5.260;2023-06-05T08:31:37;20.00;96.00
33269;DHT22;19640;50.944;5.260;2023-06-05T08:34:04;19.40;97.50
33269;DHT22;19640;50.944;5.260;2023-06-05T08:36:31;19.60;99.60
33269;DHT22;19640;50.944;5.260;2023-06-05T08:38:58;20.00;98.30
33269;DHT22;19640;50.944;5.260;2023-06-05T08:41:25;20.40;97.80
33269;DHT22;19640;50.944;5.260;2023-06-05T08:43:51;20.70;97.40
33269;DHT22;19640;50.944;5.260;2023-06-05T08:46:17;20.70;97.10
33269;DHT22;19640;50.944;5.260;2023-06-05T08:48:46;20.50;97.00
33269;DHT22;19640;50.944;5.260;2023-06-05T08:51:15;20.70;97.10
33269;DHT22;19640;50.944;5.260;2023-06-05T08:53:43;21.10;97.40
33269;DHT22;19640;50.944;5.260;2023-06-05T08:56:12;21.70;96.80
33269;DHT22;19640;50.944;5.260;2023-06-05T08:58:39;21.70;96.50
33269;DHT22;19640;50.944;5.260;2023-06-05T09:01:05;21.90;96.10
33269;DHT22;19640;50.944;5.260;2023-06-05T09:03:33;22.30;95.70
33269;DHT22;19640;50.944;5.260;2023-06-05T09:05:59;22.50;95.40
33269;DHT22;19640;50.944;5.260;2023-06-05T09:08:28;21.90;95.30
33269;DHT22;19640;50.944;5.260;2023-06-05T09:13:47;21.20;94.60
33269;DHT22;19640;50.944;5.260;2023-06-05T09:16:12;21.40;95.60
33269;DHT22;19640;50.944;5.260;2023-06-05T09:18:54;21.50;96.00
33269;DHT22;19640;50.944;5.260;2023-06-05T09:21:21;21.30;95.10
33269;DHT22;19640;50.944;5.260;2023-06-05T09:23:47;21.00;94.70
33269;DHT22;19640;50.944;5.260;2023-06-05T09:26:13;21.00;95.40
33269;DHT22;19640;50.944;5.260;2023-06-05T09:29:00;21.20;95.90
33269;DHT22;19640;50.944;5.260;2023-06-05T09:31:40;21.80;96.10
33269;DHT22;19640;50.944;5.260;2023-06-05T09:34:06;21.50;93.50
33269;DHT22;19640;50.944;5.260;2023-06-05T09:36:32;20.90;93.50
33269;DHT22;19640;50.944;5.260;2023-06-05T09:39:16;21.10;94.40
33269;DHT22;19640;50.944;5.260;2023-06-05T09:41:43;21.40;95.00
33269;DHT22;19640;50.944;5.260;2023-06-05T09:44:10;21.80;96.10
33269;DHT22;19640;50.944;5.260;2023-06-05T09:47:06;22.30;95.00
33269;DHT22;19640;50.944;5.260;2023-06-05T09:52:09;22.10;93.50
33269;DHT22;19640;50.944;5.260;2023-06-05T09:54:37;22.30;93.70
33269;DHT22;19640;50.944;5.260;2023-06-05T09:57:05;22.10;93.60
33269;DHT22;19640;50.944;5.260;2023-06-05T09:59:38;22.20;95.10
33269;DHT22;19640;50.944;5.260;2023-06-05T10:02:09;22.30;92.80
33269;DHT22;19640;50.944;5.260;2023-06-05T10:04:47;22.10;93.20
33269;DHT22;19640;50.944;5.260;2023-06-05T10:07:13;21.70;93.40
33269;DHT22;19640;50.944;5.260;2023-06-05T10:09:41;21.70;93.30
33269;DHT22;19640;50.944;5.260;2023-06-05T10:12:08;21.50;93.40
33269;DHT22;19640;50.944;5.260;2023-06-05T10:14:35;21.80;94.70
33269;DHT22;19640;50.944;5.260;2023-06-05T10:17:02;22.10;93.60
33269;DHT22;19640;50.944;5.260;2023-06-05T10:19:28;22.60;94.40
33269;DHT22;19640;50.944;5.260;2023-06-05T10:21:53;22.70;92.50
33269;DHT22;19640;50.944;5.260;2023-06-05T10:24:35;22.90;92.90
33269;DHT22;19640;50.944;5.260;2023-06-05T10:40:17;22.70;91.40
33269;DHT22;19640;50.944;5.260;2023-06-05T10:42:43;22.90;91.00
33269;DHT22;19640;50.944;5.260;2023-06-05T10:45:09;22.70;93.00
33269;DHT22;19640;50.944;5.260;2023-06-05T10:52:48;23.60;92.70
33269;DHT22;19640;50.944;5.260;2023-06-05T10:55:15;23.60;87.40
33269;DHT22;19640;50.944;5.260;2023-06-05T11:00:26;22.70;90.10
33269;DHT22;19640;50.944;5.260;2023-06-05T11:02:52;23.00;89.50
33269;DHT22;19640;50.944;5.260;2023-06-05T11:05:19;23.10;92.30
33269;DHT22;19640;50.944;5.260;2023-06-05T11:07:45;23.10;91.90
33269;DHT22;19640;50.944;5.260;2023-06-05T11:15:15;23.00;87.20
33269;DHT22;19640;50.944;5.260;2023-06-05T11:17:46;22.90;87.80
33269;DHT22;19640;50.944;5.260;2023-06-05T11:30:29;22.90;87.40
33269;DHT22;19640;50.944;5.260;2023-06-05T11:33:09;23.20;90.40
33269;DHT22;19640;50.944;5.260;2023-06-05T11:35:35;23.40;89.20
33269;DHT22;19640;50.944;5.260;2023-06-05T11:38:19;23.90;88.70
33269;DHT22;19640;50.944;5.260;2023-06-05T11:40:45;23.90;83.60
33269;DHT22;19640;50.944;5.260;2023-06-05T11:43:13;23.60;81.70
33269;DHT22;19640;50.944;5.260;2023-06-05T11:45:40;23.60;82.60
33269;DHT22;19640;50.944;5.260;2023-06-05T11:48:09;23.80;86.90
33269;DHT22;19640;50.944;5.260;2023-06-05T11:50:37;24.20;87.30
33269;DHT22;19640;50.944;5.260;2023-06-05T11:53:09;24.20;86.70
33269;DHT22;19640;50.944;5.260;2023-06-05T11:55:35;24.00;86.90
33269;DHT22;19640;50.944;5.260;2023-06-05T11:58:28;23.90;88.20
33269;DHT22;19640;50.944;5.260;2023-06-05T12:01:23;24.00;86.40
33269;DHT22;19640;50.944;5.260;2023-06-05T12:04:04;23.90;80.90
33269;DHT22;19640;50.944;5.260;2023-06-05T12:06:30;24.30;86.30
33269;DHT22;19640;50.944;5.260;2023-06-05T12:09:12;24.20;81.90
33269;DHT22;19640;50.944;5.260;2023-06-05T12:11:39;24.20;84.30
33269;DHT22;19640;50.944;5.260;2023-06-05T12:14:06;24.10;83.80
33269;DHT22;19640;50.944;5.260;2023-06-05T12:16:35;24.00;77.00
33269;DHT22;19640;50.944;5.260;2023-06-05T12:19:10;23.90;81.90
33269;DHT22;19640;50.944;5.260;2023-06-05T12:21:36;24.10;82.80
33269;DHT22;19640;50.944;5.260;2023-06-05T12:24:03;23.90;81.90
33269;DHT22;19640;50.944;5.260;2023-06-05T12:26:29;23.60;81.00
33269;DHT22;19640;50.944;5.260;2023-06-05T12:29:05;23.50;82.50
33269;DHT22;19640;50.944;5.260;2023-06-05T12:31:33;23.50;83.80
33269;DHT22;19640;50.944;5.260;2023-06-05T12:34:00;23.80;89.80
33269;DHT22;19640;50.944;5.260;2023-06-05T12:36:25;24.00;79.50
33269;DHT22;19640;50.944;5.260;2023-06-05T12:38:54;23.70;85.10
33269;DHT22;19640;50.944;5.260;2023-06-05T12:41:19;23.80;82.90
33269;DHT22;19640;50.944;5.260;2023-06-05T12:43:45;24.10;83.60
33269;DHT22;19640;50.944;5.260;2023-06-05T12:46:11;24.20;82.00
33269;DHT22;19640;50.944;5.260;2023-06-05T12:48:39;24.20;75.20
33269;DHT22;19640;50.944;5.260;2023-06-05T12:51:05;24.20;83.60
33269;DHT22;19640;50.944;5.260;2023-06-05T12:53:31;24.30;77.70
33269;DHT22;19640;50.944;5.260;2023-06-05T12:55:56;24.10;77.60
33269;DHT22;19640;50.944;5.260;2023-06-05T12:58:22;24.00;82.80
33269;DHT22;19640;50.944;5.260;2023-06-05T13:00:48;24.10;81.60
33269;DHT22;19640;50.944;5.260;2023-06-05T13:03:13;23.90;76.40
33269;DHT22;19640;50.944;5.260;2023-06-05T13:05:39;23.90;76.70
33269;DHT22;19640;50.944;5.260;2023-06-05T13:08:05;24.00;80.30
33269;DHT22;19640;50.944;5.260;2023-06-05T13:10:31;24.00;81.50
33269;DHT22;19640;50.944;5.260;2023-06-05T13:12:57;24.10;80.90
33269;DHT22;19640;50.944;5.260;2023-06-05T13:15:22;24.00;82.80
33269;DHT22;19640;50.944;5.260;2023-06-05T13:17:48;24.10;78.50
33269;DHT22;19640;50.944;5.260;2023-06-05T13:20:15;24.30;80.20
33269;DHT22;19640;50.944;5.260;2023-06-05T13:22:41;24.30;75.30
33269;DHT22;19640;50.944;5.260;2023-06-05T13:25:07;24.30;79.10
33269;DHT22;19640;50.944;5.260;2023-06-05T13:27:34;24.10;75.20
33269;DHT22;19640;50.944;5.260;2023-06-05T13:29:59;24.10;76.30
33269;DHT22;19640;50.944;5.260;2023-06-05T13:32:25;24.30;81.20
33269;DHT22;19640;50.944;5.260;2023-06-05T13:34:51;24.50;74.60
33269;DHT22;19640;50.944;5.260;2023-06-05T13:37:19;24.30;75.90
33269;DHT22;19640;50.944;5.260;2023-06-05T13:39:45;24.30;78.30
33269;DHT22;19640;50.944;5.260;2023-06-05T13:42:11;24.10;76.00
33269;DHT22;19640;50.944;5.260;2023-06-05T13:44:37;24.00;75.90
33269;DHT22;19640;50.944;5.260;2023-06-05T13:47:03;24.10;76.30
33269;DHT22;19640;50.944;5.260;2023-06-05T13:49:30;24.10;73.20
33269;DHT22;19640;50.944;5.260;2023-06-05T13:51:56;23.90;74.20
33269;DHT22;19640;50.944;5.260;2023-06-05T13:54:22;24.00;73.80
33269;DHT22;19640;50.944;5.260;2023-06-05T13:56:47;24.20;79.10
33269;DHT22;19640;50.944;5.260;2023-06-05T13:59:13;24.40;79.30
33269;DHT22;19640;50.944;5.260;2023-06-05T14:01:39;24.60;73.70
33269;DHT22;19640;50.944;5.260;2023-06-05T14:04:04;24.40;75.40
33269;DHT22;19640;50.944;5.260;2023-06-05T14:06:31;24.40;74.20
33269;DHT22;19640;50.944;5.260;2023-06-05T14:08:56;24.50;75.10
33269;DHT22;19640;50.944;5.260;2023-06-05T14:11:22;24.60;71.70
33269;DHT22;19640;50.944;5.260;2023-06-05T14:13:49;24.40;73.00
33269;DHT22;19640;50.944;5.260;2023-06-05T14:16:15;24.30;71.80
33269;DHT22;19640;50.944;5.260;2023-06-05T14:18:41;24.30;73.20
33269;DHT22;19640;50.944;5.260;2023-06-05T14:21:06;24.30;71.10
33269;DHT22;19640;50.944;5.260;2023-06-05T14:23:32;24.20;71.40
33269;DHT22;19640;50.944;5.260;2023-06-05T14:25:58;24.30;73.20
33269;DHT22;19640;50.944;5.260;2023-06-05T14:28:23;24.50;77.00
33269;DHT22;19640;50.944;5.260;2023-06-05T14:30:50;24.70;74.00
33269;DHT22;19640;50.944;5.260;2023-06-05T14:33:15;24.50;72.50
33269;DHT22;19640;50.944;5.260;2023-06-05T14:35:44;24.60;75.70
33269;DHT22;19640;50.944;5.260;2023-06-05T14:38:10;24.40;68.70
33269;DHT22;19640;50.944;5.260;2023-06-05T14:40:41;24.40;72.20
33269;DHT22;19640;50.944;5.260;2023-06-05T14:43:07;24.30;68.10
33269;DHT22;19640;50.944;5.260;2023-06-05T14:45:33;24.20;71.00
33269;DHT22;19640;50.944;5.260;2023-06-05T14:47:58;24.40;75.40
33269;DHT22;19640;50.944;5.260;2023-06-05T14:50:24;24.30;68.90
33269;DHT22;19640;50.944;5.260;2023-06-05T14:52:50;24.10;68.30
33269;DHT22;19640;50.944;5.260;2023-06-05T14:55:16;24.30;74.20
33269;DHT22;19640;50.944;5.260;2023-06-05T14:57:41;24.30;72.50
33269;DHT22;19640;50.944;5.260;2023-06-05T15:00:07;24.20;70.50
33269;DHT22;19640;50.944;5.260;2023-06-05T15:02:34;24.20;70.00
33269;DHT22;19640;50.944;5.260;2023-06-05T15:05:00;24.30;69.80
33269;DHT22;19640;50.944;5.260;2023-06-05T15:07:38;24.60;68.10
33269;DHT22;19640;50.944;5.260;2023-06-05T15:10:08;24.60;70.50
33269;DHT22;19640;50.944;5.260;2023-06-05T15:12:35;24.60;69.40
33269;DHT22;19640;50.944;5.260;2023-06-05T15:15:01;24.50;65.40
33269;DHT22;19640;50.944;5.260;2023-06-05T15:17:27;24.60;67.80
33269;DHT22;19640;50.944;5.260;2023-06-05T15:19:53;24.80;69.50
33269;DHT22;19640;50.944;5.260;2023-06-05T15:22:18;25.00;71.80
33269;DHT22;19640;50.944;5.260;2023-06-05T15:24:44;25.30;66.50
33269;DHT22;19640;50.944;5.260;2023-06-05T15:27:12;24.90;66.40
33269;DHT22;19640;50.944;5.260;2023-06-05T15:29:37;24.50;66.10
33269;DHT22;19640;50.944;5.260;2023-06-05T15:32:03;24.50;68.80
33269;DHT22;19640;50.944;5.260;2023-06-05T15:34:29;24.40;70.20
33269;DHT22;19640;50.944;5.260;2023-06-05T15:36:55;24.40;66.60
33269;DHT22;19640;50.944;5.260;2023-06-05T15:39:20;24.40;67.50
33269;DHT22;19640;50.944;5.260;2023-06-05T15:41:46;24.30;66.20
33269;DHT22;19640;50.944;5.260;2023-06-05T15:44:16;24.20;66.20
33269;DHT22;19640;50.944;5.260;2023-06-05T15:46:41;24.20;66.80
33269;DHT22;19640;50.944;5.260;2023-06-05T15:49:07;24.30;68.50
33269;DHT22;19640;50.944;5.260;2023-06-05T15:51:33;24.50;72.80
33269;DHT22;19640;50.944;5.260;2023-06-05T15:53:59;24.70;68.30
33269;DHT22;19640;50.944;5.260;2023-06-05T15:56:25;24.60;66.50
33269;DHT22;19640;50.944;5.260;2023-06-05T15:58:52;24.60;68.90
33269;DHT22;19640;50.944;5.260;2023-06-05T16:01:17;24.60;70.70
33269;DHT22;19640;50.944;5.260;2023-06-05T16:03:43;24.70;68.80
33269;DHT22;19640;50.944;5.260;2023-06-05T16:06:09;24.60;68.30
33269;DHT22;19640;50.944;5.260;2023-06-05T16:08:39;24.50;68.00
33269;DHT22;19640;50.944;5.260;2023-06-05T16:11:05;24.50;63.90
33269;DHT22;19640;50.944;5.260;2023-06-05T16:13:31;24.40;64.90
33269;DHT22;19640;50.944;5.260;2023-06-05T16:15:56;24.30;66.10